sensor_id;sensor_type;location;lat;lon;timestamp;P1;durP1;ratioP1;P2;durP2;ratioP2
10851;SDS011;5479;52.046;6.314;2024-01-16T00:00:45;9.10;;;3.50;;
10851;SDS011;5479;52.046;6.314;2024-01-16T00:03:14;9.47;;;3.83;;
10851;SDS011;5479;52.046;6.314;2024-01-16T00:05:42;8.40;;;3.97;;
10851;SDS011;5479;52.046;6.314;2024-01-16T00:08:09;8.87;;;4.43;;
10851;SDS011;5479;52.046;6.314;2024-01-16T00:10:37;10.97;;;4.47;;
10851;SDS011;5479;52.046;6.314;2024-01-16T00:13:05;9.30;;;4.87;;
10851;SDS011;5479;52.046;6.314;2024-01-16T00:15:32;9.73;;;5.30;;
10851;SDS011;5479;52.046;6.314;2024-01-16T00:18:00;8.57;;;4.40;;
10851;SDS011;5479;52.046;6.314;2024-01-16T00:20:29;7.83;;;4.10;;
10851;SDS011;5479;52.046;6.314;2024-01-16T00:22:57;8.90;;;4.30;;
10851;SDS011;5479;52.046;6.314;2024-01-16T00:25:24;9.43;;;3.67;;
10851;SDS011;5479;52.046;6.314;2024-01-16T00:27:52;8.90;;;4.00;;
10851;SDS011;5479;52.046;6.314;2024-01-16T00:30:20;8.60;;;3.50;;
10851;SDS011;5479;52.046;6.314;2024-01-16T00:32:47;7.93;;;3.83;;
10851;SDS011;5479;52.046;6.314;2024-01-16T00:35:15;7.63;;;3.43;;
10851;SDS011;5479;52.046;6.314;2024-01-16T00:37:44;9.30;;;3.87;;
10851;SDS011;5479;52.046;6.314;2024-01-16T00:40:12;7.77;;;3.83;;
10851;SDS011;5479;52.046;6.314;2024-01-16T00:42:40;7.57;;;3.30;;
10851;SDS011;5479;52.046;6.314;2024-01-16T00:45:07;7.37;;;3.60;;
10851;SDS011;5479;52.046;6.314;2024-01-16T00:47:35;12.53;;;3.50;;
10851;SDS011;5479;52.046;6.314;2024-01-16T00:50:03;7.33;;;3.40;;
10851;SDS011;5479;52.046;6.314;2024-01-16T00:52:31;7.13;;;3.03;;
10851;SDS011;5479;52.046;6.314;2024-01-16T00:55:00;7.47;;;3.00;;
10851;SDS011;5479;52.046;6.314;2024-01-16T00:57:29;8.10;;;3.07;;
10851;SDS011;5479;52.046;6.314;2024-01-16T00:59:57;5.70;;;2.83;;
10851;SDS011;5479;52.046;6.314;2024-01-16T01:02:25;7.83;;;3.07;;
10851;SDS011;5479;52.046;6.314;2024-01-16T01:04:53;9.47;;;3.00;;
10851;SDS011;5479;52.046;6.314;2024-01-16T01:07:20;6.07;;;2.70;;
10851;SDS011;5479;52.046;6.314;2024-01-16T01:09:48;7.63;;;3.07;;
10851;SDS011;5479;52.046;6.314;2024-01-16T01:12:17;7.07;;;3.10;;
10851;SDS011;5479;52.046;6.314;2024-01-16T01:14:45;5.10;;;2.67;;
10851;SDS011;5479;52.046;6.314;2024-01-16T01:17:11;10.57;;;2.90;;
10851;SDS011;5479;52.046;6.314;2024-01-16T01:19:39;5.80;;;2.60;;
10851;SDS011;5479;52.046;6.314;2024-01-16T01:22:07;7.37;;;3.10;;
10851;SDS011;5479;52.046;6.314;2024-01-16T01:24:34;8.13;;;2.70;;
10851;SDS011;5479;52.046;6.314;2024-01-16T01:27:02;8.60;;;2.80;;
10851;SDS011;5479;52.046;6.314;2024-01-16T01:29:31;7.37;;;2.63;;
10851;SDS011;5479;52.046;6.314;2024-01-16T01:31:59;7.23;;;2.40;;
10851;SDS011;5479;52.046;6.314;2024-01-16T01:34:27;7.20;;;2.53;;
10851;SDS011;5479;52.046;6.314;2024-01-16T01:36:54;6.37;;;2.10;;
10851;SDS011;5479;52.046;6.314;2024-01-16T01:39:24;9.67;;;2.63;;
10851;SDS011;5479;52.046;6.314;2024-01-16T01:41:54;5.33;;;2.23;;
10851;SDS011;5479;52.046;6.314;2024-01-16T01:44:22;5.70;;;2.00;;
10851;SDS011;5479;52.046;6.314;2024-01-16T01:46:52;3.40;;;1.73;;
10851;SDS011;5479;52.046;6.314;2024-01-16T01:49:21;6.77;;;2.00;;
10851;SDS011;5479;52.046;6.314;2024-01-16T01:51:50;6.17;;;2.20;;
10851;SDS011;5479;52.046;6.314;2024-01-16T01:54:17;9.07;;;2.17;;
10851;SDS011;5479;52.046;6.314;2024-01-16T01:56:46;5.60;;;2.00;;
10851;SDS011;5479;52.046;6.314;2024-01-16T01:59:15;6.10;;;2.07;;
10851;SDS011;5479;52.046;6.314;2024-01-16T02:01:45;7.17;;;2.07;;
10851;SDS011;5479;52.046;6.314;2024-01-16T02:04:15;5.10;;;1.80;;
10851;SDS011;5479;52.046;6.314;2024-01-16T02:06:44;8.50;;;2.03;;
10851;SDS011;5479;52.046;6.314;2024-01-16T02:09:12;8.37;;;2.17;;
10851;SDS011;5479;52.046;6.314;2024-01-16T02:11:39;4.97;;;2.07;;
10851;SDS011;5479;52.046;6.314;2024-01-16T02:14:07;10.63;;;2.93;;
10851;SDS011;5479;52.046;6.314;2024-01-16T02:16:35;6.83;;;2.30;;
10851;SDS011;5479;52.046;6.314;2024-01-16T02:19:03;6.33;;;2.20;;
10851;SDS011;5479;52.046;6.314;2024-01-16T02:21:35;6.27;;;2.47;;
10851;SDS011;5479;52.046;6.314;2024-01-16T02:24:06;5.80;;;2.20;;
10851;SDS011;5479;52.046;6.314;2024-01-16T02:26:34;6.40;;;2.77;;
10851;SDS011;5479;52.046;6.314;2024-01-16T02:29:02;7.33;;;2.80;;
10851;SDS011;5479;52.046;6.314;2024-01-16T02:31:30;10.57;;;3.00;;
10851;SDS011;5479;52.046;6.314;2024-01-16T02:33:58;6.60;;;2.93;;
10851;SDS011;5479;52.046;6.314;2024-01-16T02:36:25;7.20;;;2.93;;
10851;SDS011;5479;52.046;6.314;2024-01-16T02:38:53;6.57;;;3.07;;
10851;SDS011;5479;52.046;6.314;2024-01-16T02:41:22;7.17;;;3.10;;
10851;SDS011;5479;52.046;6.314;2024-01-16T02:43:50;7.10;;;3.13;;
10851;SDS011;5479;52.046;6.314;2024-01-16T02:46:18;8.13;;;3.47;;
10851;SDS011;5479;52.046;6.314;2024-01-16T02:48:45;5.57;;;3.07;;
10851;SDS011;5479;52.046;6.314;2024-01-16T02:51:13;8.20;;;3.53;;
10851;SDS011;5479;52.046;6.314;2024-01-16T02:53:42;9.27;;;3.90;;
10851;SDS011;5479;52.046;6.314;2024-01-16T02:56:09;7.90;;;3.73;;
10851;SDS011;5479;52.046;6.314;2024-01-16T02:58:39;8.27;;;3.50;;
10851;SDS011;5479;52.046;6.314;2024-01-16T03:01:06;7.27;;;3.87;;
10851;SDS011;5479;52.046;6.314;2024-01-16T03:03:34;6.97;;;3.20;;
10851;SDS011;5479;52.046;6.314;2024-01-16T03:06:02;11.07;;;3.83;;
10851;SDS011;5479;52.046;6.314;2024-01-16T03:08:30;8.70;;;4.23;;
10851;SDS011;5479;52.046;6.314;2024-01-16T03:10:58;10.93;;;4.30;;
10851;SDS011;5479;52.046;6.314;2024-01-16T03:13:25;6.63;;;4.17;;
10851;SDS011;5479;52.046;6.314;2024-01-16T03:15:55;10.17;;;4.93;;
10851;SDS011;5479;52.046;6.314;2024-01-16T03:18:22;8.80;;;5.20;;
10851;SDS011;5479;52.046;6.314;2024-01-16T03:20:50;7.30;;;4.87;;
10851;SDS011;5479;52.046;6.314;2024-01-16T03:23:18;9.17;;;5.70;;
10851;SDS011;5479;52.046;6.314;2024-01-16T03:25:45;9.63;;;5.20;;
10851;SDS011;5479;52.046;6.314;2024-01-16T03:28:13;9.23;;;5.53;;
10851;SDS011;5479;52.046;6.314;2024-01-16T03:30:41;12.70;;;6.40;;
10851;SDS011;5479;52.046;6.314;2024-01-16T03:33:10;9.30;;;6.00;;
10851;SDS011;5479;52.046;6.314;2024-01-16T03:35:37;9.60;;;6.10;;
10851;SDS011;5479;52.046;6.314;2024-01-16T03:38:05;11.40;;;6.53;;
10851;SDS011;5479;52.046;6.314;2024-01-16T03:40:35;11.03;;;6.13;;
10851;SDS011;5479;52.046;6.314;2024-01-16T03:43:02;9.20;;;5.70;;
10851;SDS011;5479;52.046;6.314;2024-01-16T03:45:31;12.20;;;6.27;;
10851;SDS011;5479;52.046;6.314;2024-01-16T03:47:59;9.13;;;6.07;;
10851;SDS011;5479;52.046;6.314;2024-01-16T03:50:28;9.43;;;6.23;;
10851;SDS011;5479;52.046;6.314;2024-01-16T03:52:55;9.80;;;6.50;;
10851;SDS011;5479;52.046;6.314;2024-01-16T03:55:23;10.30;;;6.07;;
10851;SDS011;5479;52.046;6.314;2024-01-16T03:57:51;10.60;;;6.40;;
10851;SDS011;5479;52.046;6.314;2024-01-16T04:00:19;12.90;;;6.40;;
10851;SDS011;5479;52.046;6.314;2024-01-16T04:02:47;9.30;;;5.50;;
10851;SDS011;5479;52.046;6.314;2024-01-16T04:05:14;8.20;;;5.67;;
10851;SDS011;5479;52.046;6.314;2024-01-16T04:07:44;8.97;;;5.93;;
10851;SDS011;5479;52.046;6.314;2024-01-16T04:10:12;8.47;;;5.50;;
10851;SDS011;5479;52.046;6.314;2024-01-16T04:12:40;10.40;;;6.10;;
10851;SDS011;5479;52.046;6.314;2024-01-16T04:15:08;9.47;;;5.47;;
10851;SDS011;5479;52.046;6.314;2024-01-16T04:17:36;10.10;;;5.07;;
10851;SDS011;5479;52.046;6.314;2024-01-16T04:20:04;9.10;;;5.20;;
10851;SDS011;5479;52.046;6.314;2024-01-16T04:22:33;8.43;;;4.97;;
10851;SDS011;5479;52.046;6.314;2024-01-16T04:25:02;7.73;;;5.23;;
10851;SDS011;5479;52.046;6.314;2024-01-16T04:27:31;7.50;;;4.60;;
10851;SDS011;5479;52.046;6.314;2024-01-16T04:29:59;10.70;;;4.77;;
10851;SDS011;5479;52.046;6.314;2024-01-16T04:32:26;11.80;;;4.90;;
10851;SDS011;5479;52.046;6.314;2024-01-16T04:34:55;8.07;;;5.13;;
10851;SDS011;5479;52.046;6.314;2024-01-16T04:37:23;7.53;;;4.57;;
10851;SDS011;5479;52.046;6.314;2024-01-16T04:39:51;9.13;;;4.93;;
10851;SDS011;5479;52.046;6.314;2024-01-16T04:42:21;9.30;;;5.00;;
10851;SDS011;5479;52.046;6.314;2024-01-16T04:44:49;9.37;;;5.83;;
10851;SDS011;5479;52.046;6.314;2024-01-16T04:47:16;10.43;;;5.50;;
10851;SDS011;5479;52.046;6.314;2024-01-16T04:49:45;9.23;;;5.50;;
10851;SDS011;5479;52.046;6.314;2024-01-16T04:52:13;9.23;;;5.23;;
10851;SDS011;5479;52.046;6.314;2024-01-16T04:54:42;11.27;;;5.00;;
10851;SDS011;5479;52.046;6.314;2024-01-16T04:57:11;8.57;;;4.70;;
10851;SDS011;5479;52.046;6.314;2024-01-16T04:59:41;7.83;;;4.30;;
10851;SDS011;5479;52.046;6.314;2024-01-16T05:02:09;7.03;;;4.10;;
10851;SDS011;5479;52.046;6.314;2024-01-16T05:04:36;8.10;;;3.43;;
10851;SDS011;5479;52.046;6.314;2024-01-16T05:07:04;7.70;;;3.07;;
10851;SDS011;5479;52.046;6.314;2024-01-16T05:09:35;5.87;;;3.10;;
10851;SDS011;5479;52.046;6.314;2024-01-16T05:12:02;5.80;;;2.70;;
10851;SDS011;5479;52.046;6.314;2024-01-16T05:14:31;6.53;;;2.57;;
10851;SDS011;5479;52.046;6.314;2024-01-16T05:17:00;3.30;;;1.90;;
10851;SDS011;5479;52.046;6.314;2024-01-16T05:19:30;3.93;;;2.00;;
10851;SDS011;5479;52.046;6.314;2024-01-16T05:21:57;5.23;;;2.23;;
10851;SDS011;5479;52.046;6.314;2024-01-16T05:24:26;4.30;;;1.63;;
10851;SDS011;5479;52.046;6.314;2024-01-16T05:26:54;3.17;;;1.63;;
10851;SDS011;5479;52.046;6.314;2024-01-16T05:29:21;4.53;;;1.90;;
10851;SDS011;5479;52.046;6.314;2024-01-16T05:31:49;3.33;;;1.70;;
10851;SDS011;5479;52.046;6.314;2024-01-16T05:34:18;6.20;;;2.20;;
10851;SDS011;5479;52.046;6.314;2024-01-16T05:36:46;2.83;;;1.70;;
10851;SDS011;5479;52.046;6.314;2024-01-16T05:39:14;6.00;;;2.37;;
10851;SDS011;5479;52.046;6.314;2024-01-16T05:41:43;5.73;;;2.60;;
10851;SDS011;5479;52.046;6.314;2024-01-16T05:44:11;5.93;;;3.20;;
10851;SDS011;5479;52.046;6.314;2024-01-16T05:46:40;6.30;;;3.23;;
10851;SDS011;5479;52.046;6.314;2024-01-16T05:49:07;6.97;;;3.70;;
10851;SDS011;5479;52.046;6.314;2024-01-16T05:51:36;6.40;;;4.00;;
10851;SDS011;5479;52.046;6.314;2024-01-16T05:54:04;8.17;;;4.77;;
10851;SDS011;5479;52.046;6.314;2024-01-16T05:56:32;7.43;;;4.70;;
10851;SDS011;5479;52.046;6.314;2024-01-16T05:59:00;9.10;;;4.97;;
10851;SDS011;5479;52.046;6.314;2024-01-16T06:01:28;10.60;;;4.90;;
10851;SDS011;5479;52.046;6.314;2024-01-16T06:03:56;9.83;;;5.17;;
10851;SDS011;5479;52.046;6.314;2024-01-16T06:06:24;8.07;;;4.80;;
10851;SDS011;5479;52.046;6.314;2024-01-16T06:08:53;7.67;;;4.90;;
10851;SDS011;5479;52.046;6.314;2024-01-16T06:11:29;10.50;;;5.00;;
10851;SDS011;5479;52.046;6.314;2024-01-16T06:13:57;8.47;;;5.00;;
10851;SDS011;5479;52.046;6.314;2024-01-16T06:16:24;8.30;;;5.10;;
10851;SDS011;5479;52.046;6.314;2024-01-16T06:18:52;7.80;;;4.50;;
10851;SDS011;5479;52.046;6.314;2024-01-16T06:21:20;9.23;;;5.33;;
10851;SDS011;5479;52.046;6.314;2024-01-16T06:23:48;7.77;;;4.60;;
10851;SDS011;5479;52.046;6.314;2024-01-16T06:26:18;9.07;;;5.17;;
10851;SDS011;5479;52.046;6.314;2024-01-16T06:28:45;8.97;;;4.50;;
10851;SDS011;5479;52.046;6.314;2024-01-16T06:31:14;7.43;;;4.30;;
10851;SDS011;5479;52.046;6.314;2024-01-16T06:33:43;7.60;;;4.23;;
10851;SDS011;5479;52.046;6.314;2024-01-16T06:36:11;7.57;;;4.70;;
10851;SDS011;5479;52.046;6.314;2024-01-16T06:38:38;7.20;;;3.90;;
10851;SDS011;5479;52.046;6.314;2024-01-16T06:41:07;8.97;;;3.80;;
10851;SDS011;5479;52.046;6.314;2024-01-16T06:43:36;6.17;;;3.60;;
10851;SDS011;5479;52.046;6.314;2024-01-16T06:46:06;9.53;;;3.73;;
10851;SDS011;5479;52.046;6.314;2024-01-16T06:48:34;7.80;;;3.57;;
10851;SDS011;5479;52.046;6.314;2024-01-16T06:51:02;7.00;;;3.50;;
10851;SDS011;5479;52.046;6.314;2024-01-16T06:53:29;8.50;;;3.50;;
10851;SDS011;5479;52.046;6.314;2024-01-16T06:55:57;6.30;;;3.37;;
10851;SDS011;5479;52.046;6.314;2024-01-16T06:58:25;9.17;;;3.70;;
10851;SDS011;5479;52.046;6.314;2024-01-16T07:00:54;5.97;;;3.40;;
10851;SDS011;5479;52.046;6.314;2024-01-16T07:03:21;7.87;;;3.70;;
10851;SDS011;5479;52.046;6.314;2024-01-16T07:05:49;8.93;;;3.77;;
10851;SDS011;5479;52.046;6.314;2024-01-16T07:08:17;7.90;;;4.03;;
10851;SDS011;5479;52.046;6.314;2024-01-16T07:10:44;8.53;;;3.90;;
10851;SDS011;5479;52.046;6.314;2024-01-16T07:13:12;5.73;;;3.43;;
10851;SDS011;5479;52.046;6.314;2024-01-16T07:15:40;9.10;;;4.33;;
10851;SDS011;5479;52.046;6.314;2024-01-16T07:18:09;7.63;;;4.00;;
10851;SDS011;5479;52.046;6.314;2024-01-16T07:20:37;8.87;;;4.07;;
10851;SDS011;5479;52.046;6.314;2024-01-16T07:23:05;7.50;;;3.93;;
10851;SDS011;5479;52.046;6.314;2024-01-16T07:25:32;7.67;;;4.20;;
10851;SDS011;5479;52.046;6.314;2024-01-16T07:28:00;6.47;;;3.67;;
10851;SDS011;5479;52.046;6.314;2024-01-16T07:30:28;6.37;;;4.20;;
10851;SDS011;5479;52.046;6.314;2024-01-16T07:32:55;8.60;;;4.30;;
10851;SDS011;5479;52.046;6.314;2024-01-16T07:35:25;8.60;;;4.17;;
10851;SDS011;5479;52.046;6.314;2024-01-16T07:37:53;9.83;;;4.20;;
10851;SDS011;5479;52.046;6.314;2024-01-16T07:40:20;7.27;;;3.80;;
10851;SDS011;5479;52.046;6.314;2024-01-16T07:42:50;7.60;;;4.10;;
10851;SDS011;5479;52.046;6.314;2024-01-16T07:45:17;7.73;;;4.43;;
10851;SDS011;5479;52.046;6.314;2024-01-16T07:47:45;8.77;;;4.07;;
10851;SDS011;5479;52.046;6.314;2024-01-16T07:50:15;7.77;;;4.00;;
10851;SDS011;5479;52.046;6.314;2024-01-16T07:52:44;8.57;;;4.30;;
10851;SDS011;5479;52.046;6.314;2024-01-16T07:55:11;7.50;;;3.80;;
10851;SDS011;5479;52.046;6.314;2024-01-16T07:57:39;6.83;;;3.63;;
10851;SDS011;5479;52.046;6.314;2024-01-16T08:00:07;8.27;;;4.37;;
10851;SDS011;5479;52.046;6.314;2024-01-16T08:02:38;8.80;;;4.13;;
10851;SDS011;5479;52.046;6.314;2024-01-16T08:05:06;7.40;;;4.10;;
10851;SDS011;5479;52.046;6.314;2024-01-16T08:07:35;6.70;;;4.10;;
10851;SDS011;5479;52.046;6.314;2024-01-16T08:10:05;9.03;;;4.23;;
10851;SDS011;5479;52.046;6.314;2024-01-16T08:12:32;7.07;;;3.80;;
10851;SDS011;5479;52.046;6.314;2024-01-16T08:15:01;7.23;;;4.43;;
10851;SDS011;5479;52.046;6.314;2024-01-16T08:17:29;8.57;;;4.40;;
10851;SDS011;5479;52.046;6.314;2024-01-16T08:19:56;9.73;;;4.17;;
10851;SDS011;5479;52.046;6.314;2024-01-16T08:22:24;7.90;;;4.90;;
10851;SDS011;5479;52.046;6.314;2024-01-16T08:24:52;7.67;;;4.90;;
10851;SDS011;5479;52.046;6.314;2024-01-16T08:27:21;10.27;;;5.00;;
10851;SDS011;5479;52.046;6.314;2024-01-16T08:29:49;10.67;;;4.67;;
10851;SDS011;5479;52.046;6.314;2024-01-16T08:32:16;8.07;;;5.00;;
10851;SDS011;5479;52.046;6.314;2024-01-16T08:34:44;11.10;;;5.03;;
10851;SDS011;5479;52.046;6.314;2024-01-16T08:37:12;9.47;;;5.10;;
10851;SDS011;5479;52.046;6.314;2024-01-16T08:39:40;9.43;;;5.30;;
10851;SDS011;5479;52.046;6.314;2024-01-16T08:42:07;9.13;;;5.80;;
10851;SDS011;5479;52.046;6.314;2024-01-16T08:44:39;11.23;;;5.50;;
10851;SDS011;5479;52.046;6.314;2024-01-16T08:47:07;12.43;;;6.27;;
10851;SDS011;5479;52.046;6.314;2024-01-16T08:49:37;11.23;;;6.30;;
10851;SDS011;5479;52.046;6.314;2024-01-16T08:52:06;12.77;;;6.17;;
10851;SDS011;5479;52.046;6.314;2024-01-16T08:54:34;10.83;;;6.93;;
10851;SDS011;5479;52.046;6.314;2024-01-16T08:57:01;9.03;;;6.30;;
10851;SDS011;5479;52.046;6.314;2024-01-16T08:59:32;9.97;;;7.17;;
10851;SDS011;5479;52.046;6.314;2024-01-16T09:02:01;11.57;;;7.30;;
10851;SDS011;5479;52.046;6.314;2024-01-16T09:04:29;13.63;;;7.00;;
10851;SDS011;5479;52.046;6.314;2024-01-16T09:06:57;9.83;;;7.03;;
10851;SDS011;5479;52.046;6.314;2024-01-16T09:09:26;10.67;;;6.97;;
10851;SDS011;5479;52.046;6.314;2024-01-16T09:11:53;11.43;;;6.60;;
10851;SDS011;5479;52.046;6.314;2024-01-16T09:14:21;9.70;;;7.20;;
10851;SDS011;5479;52.046;6.314;2024-01-16T09:16:49;11.67;;;6.80;;
10851;SDS011;5479;52.046;6.314;2024-01-16T09:19:18;10.40;;;6.80;;
10851;SDS011;5479;52.046;6.314;2024-01-16T09:21:46;9.77;;;6.70;;
10851;SDS011;5479;52.046;6.314;2024-01-16T09:24:13;12.67;;;6.40;;
10851;SDS011;5479;52.046;6.314;2024-01-16T09:26:41;13.67;;;6.80;;
10851;SDS011;5479;52.046;6.314;2024-01-16T09:29:09;11.37;;;6.27;;
10851;SDS011;5479;52.046;6.314;2024-01-16T09:31:37;12.17;;;6.23;;
10851;SDS011;5479;52.046;6.314;2024-01-16T09:34:05;9.00;;;5.23;;
10851;SDS011;5479;52.046;6.314;2024-01-16T09:36:34;8.87;;;5.47;;
10851;SDS011;5479;52.046;6.314;2024-01-16T09:39:04;9.90;;;5.17;;
10851;SDS011;5479;52.046;6.314;2024-01-16T09:41:34;8.43;;;5.03;;
10851;SDS011;5479;52.046;6.314;2024-01-16T09:44:01;10.70;;;5.47;;
10851;SDS011;5479;52.046;6.314;2024-01-16T09:46:29;8.03;;;4.77;;
10851;SDS011;5479;52.046;6.314;2024-01-16T09:48:59;9.50;;;4.77;;
10851;SDS011;5479;52.046;6.314;2024-01-16T09:51:28;9.93;;;5.33;;
10851;SDS011;5479;52.046;6.314;2024-01-16T09:53:57;6.80;;;4.60;;
10851;SDS011;5479;52.046;6.314;2024-01-16T09:56:25;9.13;;;4.20;;
10851;SDS011;5479;52.046;6.314;2024-01-16T09:58:55;8.07;;;3.93;;
10851;SDS011;5479;52.046;6.314;2024-01-16T10:01:25;8.17;;;4.13;;
10851;SDS011;5479;52.046;6.314;2024-01-16T10:03:54;7.90;;;4.60;;
10851;SDS011;5479;52.046;6.314;2024-01-16T10:06:21;7.37;;;4.20;;
10851;SDS011;5479;52.046;6.314;2024-01-16T10:08:50;8.00;;;4.23;;
10851;SDS011;5479;52.046;6.314;2024-01-16T10:11:19;6.23;;;3.60;;
10851;SDS011;5479;52.046;6.314;2024-01-16T10:13:47;6.07;;;3.63;;
10851;SDS011;5479;52.046;6.314;2024-01-16T10:16:15;7.10;;;3.43;;
10851;SDS011;5479;52.046;6.314;2024-01-16T10:18:42;6.97;;;3.80;;
10851;SDS011;5479;52.046;6.314;2024-01-16T10:21:20;9.20;;;3.40;;
10851;SDS011;5479;52.046;6.314;2024-01-16T10:23:48;8.23;;;3.40;;
10851;SDS011;5479;52.046;6.314;2024-01-16T10:26:20;9.67;;;3.50;;
10851;SDS011;5479;52.046;6.314;2024-01-16T10:28:48;7.50;;;3.30;;
10851;SDS011;5479;52.046;6.314;2024-01-16T10:31:16;7.57;;;3.63;;
10851;SDS011;5479;52.046;6.314;2024-01-16T10:33:43;8.27;;;3.30;;
10851;SDS011;5479;52.046;6.314;2024-01-16T10:36:11;6.10;;;3.23;;
10851;SDS011;5479;52.046;6.314;2024-01-16T10:38:42;6.83;;;3.33;;
10851;SDS011;5479;52.046;6.314;2024-01-16T10:41:10;5.90;;;3.10;;
10851;SDS011;5479;52.046;6.314;2024-01-16T10:43:40;5.27;;;2.70;;
10851;SDS011;5479;52.046;6.314;2024-01-16T10:46:08;7.63;;;3.53;;
10851;SDS011;5479;52.046;6.314;2024-01-16T10:48:38;6.10;;;3.00;;
10851;SDS011;5479;52.046;6.314;2024-01-16T10:51:06;6.50;;;3.13;;
10851;SDS011;5479;52.046;6.314;2024-01-16T10:53:35;7.90;;;3.53;;
10851;SDS011;5479;52.046;6.314;2024-01-16T10:56:02;5.77;;;3.03;;
10851;SDS011;5479;52.046;6.314;2024-01-16T10:58:35;6.13;;;2.90;;
10851;SDS011;5479;52.046;6.314;2024-01-16T11:01:05;7.17;;;3.23;;
10851;SDS011;5479;52.046;6.314;2024-01-16T11:03:35;6.77;;;2.90;;
10851;SDS011;5479;52.046;6.314;2024-01-16T11:06:04;7.43;;;2.80;;
10851;SDS011;5479;52.046;6.314;2024-01-16T11:08:35;5.40;;;2.87;;
10851;SDS011;5479;52.046;6.314;2024-01-16T11:11:04;7.73;;;2.77;;
10851;SDS011;5479;52.046;6.314;2024-01-16T11:13:32;6.03;;;2.93;;
10851;SDS011;5479;52.046;6.314;2024-01-16T11:16:02;5.13;;;2.67;;
10851;SDS011;5479;52.046;6.314;2024-01-16T11:18:31;5.20;;;2.70;;
10851;SDS011;5479;52.046;6.314;2024-01-16T11:20:59;6.07;;;2.80;;
10851;SDS011;5479;52.046;6.314;2024-01-16T11:23:28;8.63;;;3.00;;
10851;SDS011;5479;52.046;6.314;2024-01-16T11:25:55;6.23;;;2.73;;
10851;SDS011;5479;52.046;6.314;2024-01-16T11:28:26;8.77;;;3.10;;
10851;SDS011;5479;52.046;6.314;2024-01-16T11:30:54;8.03;;;2.70;;
10851;SDS011;5479;52.046;6.314;2024-01-16T11:38:56;6.87;;;2.53;;
10851;SDS011;5479;52.046;6.314;2024-01-16T11:44:08;5.83;;;3.10;;
10851;SDS011;5479;52.046;6.314;2024-01-16T11:47:02;6.90;;;2.90;;
10851;SDS011;5479;52.046;6.314;2024-01-16T11:49:30;6.47;;;2.83;;
10851;SDS011;5479;52.046;6.314;2024-01-16T11:51:58;4.13;;;2.40;;
10851;SDS011;5479;52.046;6.314;2024-01-16T11:54:27;6.00;;;2.80;;
10851;SDS011;5479;52.046;6.314;2024-01-16T11:57:01;6.13;;;2.70;;
10851;SDS011;5479;52.046;6.314;2024-01-16T11:59:55;4.53;;;2.30;;
10851;SDS011;5479;52.046;6.314;2024-01-16T12:02:26;6.40;;;2.43;;
10851;SDS011;5479;52.046;6.314;2024-01-16T12:04:56;5.10;;;2.80;;
10851;SDS011;5479;52.046;6.314;2024-01-16T12:07:29;5.43;;;2.60;;
10851;SDS011;5479;52.046;6.314;2024-01-16T12:10:00;6.70;;;2.80;;
10851;SDS011;5479;52.046;6.314;2024-01-16T12:12:28;7.73;;;2.50;;
10851;SDS011;5479;52.046;6.314;2024-01-16T12:14:55;5.03;;;2.37;;
10851;SDS011;5479;52.046;6.314;2024-01-16T12:17:23;5.43;;;2.33;;
10851;SDS011;5479;52.046;6.314;2024-01-16T12:19:51;5.30;;;2.67;;
10851;SDS011;5479;52.046;6.314;2024-01-16T12:22:19;7.70;;;2.80;;
10851;SDS011;5479;52.046;6.314;2024-01-16T12:24:49;7.03;;;2.40;;
10851;SDS011;5479;52.046;6.314;2024-01-16T12:27:18;7.10;;;2.47;;
10851;SDS011;5479;52.046;6.314;2024-01-16T12:29:46;7.10;;;2.63;;
10851;SDS011;5479;52.046;6.314;2024-01-16T12:32:15;5.17;;;2.60;;
10851;SDS011;5479;52.046;6.314;2024-01-16T12:34:47;5.97;;;2.50;;
10851;SDS011;5479;52.046;6.314;2024-01-16T12:37:15;6.60;;;2.63;;
10851;SDS011;5479;52.046;6.314;2024-01-16T12:39:43;6.53;;;2.40;;
10851;SDS011;5479;52.046;6.314;2024-01-16T12:42:11;7.67;;;2.70;;
10851;SDS011;5479;52.046;6.314;2024-01-16T12:44:40;7.57;;;2.67;;
10851;SDS011;5479;52.046;6.314;2024-01-16T12:47:08;6.10;;;2.50;;
10851;SDS011;5479;52.046;6.314;2024-01-16T12:49:39;7.03;;;2.80;;
10851;SDS011;5479;52.046;6.314;2024-01-16T12:52:17;7.00;;;2.53;;
10851;SDS011;5479;52.046;6.314;2024-01-16T12:54:45;4.77;;;2.40;;
10851;SDS011;5479;52.046;6.314;2024-01-16T12:57:16;4.90;;;2.47;;
10851;SDS011;5479;52.046;6.314;2024-01-16T12:59:47;5.80;;;2.60;;
10851;SDS011;5479;52.046;6.314;2024-01-16T13:02:19;6.30;;;2.70;;
10851;SDS011;5479;52.046;6.314;2024-01-16T13:04:48;6.77;;;2.70;;
10851;SDS011;5479;52.046;6.314;2024-01-16T13:07:16;5.83;;;2.73;;
10851;SDS011;5479;52.046;6.314;2024-01-16T13:09:44;5.27;;;2.70;;
10851;SDS011;5479;52.046;6.314;2024-01-16T13:12:18;4.73;;;2.60;;
10851;SDS011;5479;52.046;6.314;2024-01-16T13:14:48;6.30;;;2.70;;
10851;SDS011;5479;52.046;6.314;2024-01-16T13:17:15;7.77;;;2.83;;
10851;SDS011;5479;52.046;6.314;2024-01-16T13:19:44;4.07;;;2.43;;
10851;SDS011;5479;52.046;6.314;2024-01-16T13:22:12;4.30;;;2.60;;
10851;SDS011;5479;52.046;6.314;2024-01-16T13:24:40;6.50;;;3.13;;
10851;SDS011;5479;52.046;6.314;2024-01-16T13:27:08;4.73;;;2.67;;
10851;SDS011;5479;52.046;6.314;2024-01-16T13:29:36;5.57;;;2.60;;
10851;SDS011;5479;52.046;6.314;2024-01-16T13:32:07;5.67;;;2.90;;
10851;SDS011;5479;52.046;6.314;2024-01-16T13:34:35;5.10;;;2.60;;
10851;SDS011;5479;52.046;6.314;2024-01-16T13:37:03;7.67;;;3.13;;
10851;SDS011;5479;52.046;6.314;2024-01-16T13:39:32;6.13;;;2.77;;
10851;SDS011;5479;52.046;6.314;2024-01-16T13:42:04;4.77;;;2.50;;
10851;SDS011;5479;52.046;6.314;2024-01-16T13:44:33;6.37;;;2.87;;
10851;SDS011;5479;52.046;6.314;2024-01-16T13:47:01;6.53;;;2.60;;
10851;SDS011;5479;52.046;6.314;2024-01-16T13:49:31;5.50;;;3.10;;
10851;SDS011;5479;52.046;6.314;2024-01-16T13:51:59;6.07;;;2.60;;
10851;SDS011;5479;52.046;6.314;2024-01-16T13:54:27;7.73;;;2.70;;
10851;SDS011;5479;52.046;6.314;2024-01-16T13:56:54;6.70;;;2.83;;
10851;SDS011;5479;52.046;6.314;2024-01-16T13:59:23;5.53;;;2.60;;
10851;SDS011;5479;52.046;6.314;2024-01-16T14:01:51;8.27;;;2.97;;
10851;SDS011;5479;52.046;6.314;2024-01-16T14:04:19;5.40;;;2.50;;
10851;SDS011;5479;52.046;6.314;2024-01-16T14:06:48;5.13;;;2.77;;
10851;SDS011;5479;52.046;6.314;2024-01-16T14:09:17;7.63;;;2.83;;
10851;SDS011;5479;52.046;6.314;2024-01-16T14:11:45;4.83;;;2.40;;
10851;SDS011;5479;52.046;6.314;2024-01-16T14:14:13;6.00;;;2.83;;
10851;SDS011;5479;52.046;6.314;2024-01-16T14:16:43;6.23;;;2.60;;
10851;SDS011;5479;52.046;6.314;2024-01-16T14:19:15;7.00;;;2.60;;
10851;SDS011;5479;52.046;6.314;2024-01-16T14:21:44;5.93;;;2.70;;
10851;SDS011;5479;52.046;6.314;2024-01-16T14:24:14;4.97;;;2.53;;
10851;SDS011;5479;52.046;6.314;2024-01-16T14:26:42;6.40;;;2.80;;
10851;SDS011;5479;52.046;6.314;2024-01-16T14:29:11;5.93;;;2.60;;
10851;SDS011;5479;52.046;6.314;2024-01-16T14:31:39;6.27;;;2.87;;
10851;SDS011;5479;52.046;6.314;2024-01-16T14:34:15;5.63;;;2.60;;
10851;SDS011;5479;52.046;6.314;2024-01-16T14:36:43;5.97;;;2.80;;
10851;SDS011;5479;52.046;6.314;2024-01-16T14:39:11;5.07;;;2.90;;
10851;SDS011;5479;52.046;6.314;2024-01-16T14:41:45;6.50;;;2.60;;
10851;SDS011;5479;52.046;6.314;2024-01-16T14:44:13;5.27;;;2.80;;
10851;SDS011;5479;52.046;6.314;2024-01-16T14:46:41;5.57;;;2.50;;
10851;SDS011;5479;52.046;6.314;2024-01-16T14:49:09;8.63;;;2.57;;
10851;SDS011;5479;52.046;6.314;2024-01-16T14:51:38;5.90;;;2.80;;
10851;SDS011;5479;52.046;6.314;2024-01-16T14:54:08;4.53;;;2.37;;
10851;SDS011;5479;52.046;6.314;2024-01-16T14:56:36;5.87;;;2.43;;
10851;SDS011;5479;52.046;6.314;2024-01-16T14:59:07;4.33;;;2.33;;
10851;SDS011;5479;52.046;6.314;2024-01-16T15:01:35;5.73;;;2.77;;
10851;SDS011;5479;52.046;6.314;2024-01-16T15:04:04;7.43;;;3.20;;
10851;SDS011;5479;52.046;6.314;2024-01-16T15:06:32;6.33;;;3.00;;
10851;SDS011;5479;52.046;6.314;2024-01-16T15:09:00;6.33;;;3.03;;
10851;SDS011;5479;52.046;6.314;2024-01-16T15:11:28;5.20;;;2.80;;
10851;SDS011;5479;52.046;6.314;2024-01-16T15:13:56;7.20;;;2.77;;
10851;SDS011;5479;52.046;6.314;2024-01-16T15:16:25;5.63;;;2.80;;